createdAt,value
2023-01-13T08:30:07.772Z,100.00
2023-01-13T08:33:11.679Z,100.00
2023-01-13T08:36:14.434Z,100.00
2023-01-13T09:52:58.584Z,100.00
2023-01-13T09:56:01.619Z,100.00
2023-01-13T09:59:04.091Z,100.00
2023-01-13T10:02:25.252Z,100.00
2023-01-13T10:05:35.566Z,100.00
2023-01-13T10:08:41.928Z,100.00
2023-01-13T10:12:04.972Z,100.00
2023-01-13T10:15:15.756Z,100.00
2023-01-13T10:18:25.266Z,100.00
2023-01-13T10:21:48.655Z,100.00
2023-01-13T10:25:18.183Z,100.00
2023-01-13T10:28:23.805Z,100.00
2023-01-13T10:31:27.108Z,100.00
2023-01-13T10:34:30.604Z,100.00
2023-01-13T10:37:33.178Z,100.00
2023-01-13T10:40:47.694Z,100.00
2023-01-13T10:44:00.901Z,97.94
2023-01-13T10:47:03.393Z,97.37
2023-01-13T10:50:24.093Z,98.05
2023-01-13T10:53:26.734Z,95.36
2023-01-13T10:56:33.349Z,94.19
2023-01-13T10:59:35.836Z,95.58
2023-01-13T11:02:38.714Z,94.24
2023-01-13T11:05:41.550Z,93.08
2023-01-13T11:08:46.151Z,93.19
2023-01-13T11:11:55.349Z,93.46
2023-01-13T11:15:00.352Z,91.74
2023-01-13T11:18:06.213Z,87.30
2023-01-13T11:21:13.566Z,89.15
2023-01-13T11:24:21.518Z,89.50
2023-01-13T11:27:37.204Z,87.86
2023-01-13T11:30:44.833Z,86.71
2023-01-13T11:33:51.887Z,87.71
2023-01-13T11:36:58.012Z,86.38
2023-01-13T11:40:06.116Z,86.88
2023-01-13T11:43:18.546Z,86.01
2023-01-13T11:46:24.403Z,82.50
2023-01-13T11:49:29.389Z,82.80
2023-01-13T11:52:50.835Z,82.16
2023-01-13T11:56:02.849Z,81.33
2023-01-13T11:59:37.177Z,82.55
2023-01-13T12:02:51.568Z,82.85
2023-01-13T12:06:05.578Z,83.52
2023-01-13T12:09:25.193Z,83.93
2023-01-13T12:12:39.777Z,84.57
2023-01-13T12:16:07.744Z,85.02
2023-01-13T12:19:24.309Z,85.38
2023-01-13T12:22:30.925Z,86.85
2023-01-13T12:25:39.490Z,87.06
2023-01-13T12:28:47.733Z,85.87
2023-01-13T12:31:52.409Z,84.73
2023-01-13T12:35:08.363Z,86.09
2023-01-13T12:38:16.911Z,89.22
2023-01-13T12:41:31.328Z,89.94
2023-01-13T12:44:32.944Z,91.51
2023-01-13T12:47:38.439Z,91.86
2023-01-13T12:50:44.620Z,91.83
2023-01-13T12:53:47.099Z,91.13
2023-01-13T12:56:49.946Z,90.74
2023-01-13T13:00:15.175Z,89.47
2023-01-13T13:03:32.239Z,88.80
2023-01-13T13:06:39.803Z,89.62
2023-01-13T13:09:45.735Z,87.58
2023-01-13T13:13:16.774Z,87.04
2023-01-13T13:16:46.264Z,85.95
2023-01-13T13:19:50.731Z,85.42
2023-01-13T13:22:53.252Z,82.70
2023-01-13T13:26:06.598Z,81.95
2023-01-13T13:29:45.557Z,82.72
2023-01-13T13:33:10.740Z,81.14
2023-01-13T13:36:32.092Z,81.04
2023-01-13T13:39:52.609Z,80.84
2023-01-13T13:43:15.904Z,81.02
2023-01-13T13:46:44.464Z,78.39
2023-01-13T13:49:50.848Z,79.52
2023-01-13T13:53:01.454Z,78.68
2023-01-13T13:56:17.603Z,78.33
2023-01-13T13:59:23.615Z,78.09
2023-01-13T14:02:30.353Z,76.95
2023-01-13T14:05:34.329Z,76.67
2023-01-13T14:08:46.649Z,75.73
2023-01-13T14:11:58.004Z,76.00
2023-01-13T14:15:01.233Z,75.27
2023-01-13T14:18:05.993Z,75.57
2023-01-13T14:21:21.148Z,75.03
2023-01-13T14:24:25.146Z,76.78
2023-01-13T14:27:29.481Z,76.30
2023-01-13T14:30:33.866Z,75.06
2023-01-13T14:33:40.134Z,73.95
2023-01-13T14:36:42.698Z,74.40
2023-01-13T14:39:46.542Z,73.69
2023-01-13T14:42:57.899Z,74.50
2023-01-13T14:46:03.382Z,74.45
2023-01-13T14:49:05.975Z,73.95
2023-01-13T14:52:14.990Z,75.68
2023-01-13T14:55:25.770Z,75.74
2023-01-13T14:58:29.375Z,75.54
2023-01-13T15:01:36.732Z,75.28
2023-01-13T15:04:39.251Z,76.45
2023-01-13T15:07:49.222Z,76.69
2023-01-13T15:10:55.374Z,76.19
2023-01-13T15:14:01.236Z,77.01
2023-01-13T15:17:03.861Z,77.90
2023-01-13T15:20:14.437Z,77.59
2023-01-13T15:23:16.897Z,77.53
2023-01-13T15:26:24.172Z,77.97
2023-01-13T15:29:26.668Z,77.90
2023-01-13T15:32:29.119Z,78.66
2023-01-13T15:35:32.250Z,78.31
2023-01-13T15:38:34.697Z,77.85
2023-01-13T15:41:56.352Z,77.94
2023-01-13T15:45:17.273Z,78.31
2023-01-13T15:48:21.579Z,78.47
2023-01-13T15:51:24.387Z,76.83
2023-01-13T15:54:26.843Z,77.52
2023-01-13T15:57:33.715Z,77.04
2023-01-13T16:00:36.178Z,76.39
2023-01-13T16:03:38.709Z,75.89
2023-01-13T16:06:41.360Z,76.03
2023-01-13T16:09:44.986Z,76.11
2023-01-13T16:12:48.847Z,74.44
2023-01-13T16:15:51.464Z,75.83
2023-01-13T16:18:54.837Z,76.09
2023-01-13T16:21:59.753Z,75.61
2023-01-13T16:25:02.342Z,75.84
2023-01-13T16:28:06.550Z,74.25
2023-01-13T16:31:18.332Z,73.66
2023-01-13T16:34:20.817Z,73.70
2023-01-13T16:37:25.390Z,73.61
2023-01-13T16:40:31.419Z,72.56
2023-01-13T16:43:35.239Z,73.18
2023-01-13T16:46:37.754Z,73.11
2023-01-13T16:49:40.214Z,73.40
2023-01-13T16:52:42.665Z,74.15
2023-01-13T16:55:45.460Z,74.40
2023-01-13T16:58:49.320Z,74.84
2023-01-13T17:01:52.076Z,74.79
